Portada
METAR-TAF:

METAR-TAF

Aeropuertos :

Guilin, China

latitud: 25-20N, longitud: 110-18E, altitud: 166 m

Observación

El informe se hizo hace 1 hora y 1 minutos, a las 12:00 UTC
Viento 2 kt del oeste
Temperatura 15°C
Humedad 67%
Presión 1023 hPa
Visibilidad 10 km o más
sin nubes por debajo de 1500 m y sin presencia de cumulonimbus.

METAR: ZGKL 261200Z 28001MPS CAVOK 15/09 Q1023 NOSIG

Hora: 21:01 (13:01 UTC)

Pronóstico

El informe se hizo hace 3 horas y 50 minutos, a las 09:11 UTC
Pronóstico válido del 26 a las 12 UTC al 27 a las 12 UTC
Viento 2 kt con dirección variable
Visibilidad 10 km o más
sin nubes por debajo de 1500 m y sin presencia de cumulonimbus.

TAF: ZGKL 260911Z 2612/2712 VRB01MPS CAVOK TX16/2708Z TN12/2623Z

Observaciones y pronósticos meteorológicos de más de 4000 aeropuertos (mensajes METAR y TAF).

Los puntos amarillos y rojos representan las estaciones disponibles.

Ponga el ratón en el punto deseado para ver el nombre de la estación.

Haga clic para ver las observaciones y los pronósticos meteorológicos.

Para cambiar el mapa : haga clic en los botones verdes con una cruz de color negro para hacer un zoom, en el botón verde con un guión para alejar o en las flechas verdes para mapas adyacentes.


METAR-TAF: